Time;durP1;ratioP1;P1;durP2;ratioP2;P2;SDS_P1;SDS_P2;PMS_P1;PMS_P2;Temp;Humidity;BMP_temperature;BMP_pressure;BME280_temperature;BME280_humidity;BME280_pressure;Samples;Min_cycle;Max_cycle;Signal;HPM_P1;HPM_P2
2022/03/01 00:02:27;;;;;;;;;;;;;;;3.82;45.04;101067.22;4483966;31;32752;-65
2022/03/01 00:04:55;;;;;;;;;;;;;;;4.22;43.81;101063.53;4485502;31;34410;-66
2022/03/01 00:07:23;;;;;;;;;;;;;;;4.16;44.12;101060.13;4481473;31;34529;-65
2022/03/01 00:09:50;;;;;;;;;;;;;;;4.18;45.84;101060.09;4492788;31;33526;-64
2022/03/01 00:12:18;;;;;;;;;;;;;;;4.55;44.79;101069.66;4488500;31;34127;-65
2022/03/01 00:14:46;;;;;;;;;;;;;;;4.58;43.14;101061.59;4485618;31;34175;-64
2022/03/01 00:17:13;;;;;;;;;;;;;;;4.64;43.45;101059.63;4471417;31;33013;-64
2022/03/01 00:19:41;;;;;;;;;;;;;;;4.49;43.26;101067.16;4482721;31;33296;-65
2022/03/01 00:22:09;;;;;;;;;;;;;;;4.46;42.33;101062.81;4483608;31;35618;-64
2022/03/01 00:24:36;;;;;;;;;;;;;;;4.35;42.64;101055.19;4487447;31;34496;-65
2022/03/01 00:27:05;;;;;;;;;;;;;;;4.34;42.14;101055.25;4485910;31;33180;-66
2022/03/01 00:29:35;;;;;;;;;;;;;;;4.06;43.51;101050.69;4488507;31;32550;-67
2022/03/01 00:32:03;;;;;;;;;;;;;;;4.30;43.87;101050.91;4486031;31;33861;-64
2022/03/01 00:34:31;;;;;;;;;;;;;;;4.06;45.38;101055.13;4488435;31;34276;-65
2022/03/01 00:36:58;;;;;;;;;;;;;;;4.25;45.07;101055.50;4488914;31;35385;-64
2022/03/01 00:39:26;;;;;;;;;;;;;;;4.32;43.86;101055.25;4469362;31;34669;-66
2022/03/01 00:41:54;;;;;;;;;;;;;;;4.14;42.75;101058.41;4486336;31;35538;-64
2022/03/01 00:44:21;;;;;;;;;;;;;;;3.95;43.22;101044.81;4484901;31;35149;-65
2022/03/01 00:46:50;;;;;;;;;;;;;;;3.61;44.34;101039.53;4485734;31;35209;-65
2022/03/01 00:49:18;;;;;;;;;;;;;;;3.81;43.43;101045.16;4498564;31;33832;-65
2022/03/01 00:51:45;;;;;;;;;;;;;;;4.05;43.39;101041.00;4497812;31;33241;-67
2022/03/01 00:54:13;;;;;;;;;;;;;;;3.90;43.72;101044.94;4494477;31;34456;-65
2022/03/01 00:56:42;;;;;;;;;;;;;;;3.57;44.93;101040.53;4487354;31;34282;-65
2022/03/01 00:59:10;;;;;;;;;;;;;;;3.77;44.35;101038.22;4490419;31;32313;-68
2022/03/01 01:01:37;;;;;;;;;;;;;;;3.76;45.52;101039.12;4493694;31;35219;-65
2022/03/01 01:04:08;;;;;;;;;;;;;;;3.69;43.61;101040.19;4491036;31;34447;-65
2022/03/01 01:06:35;;;;;;;;;;;;;;;3.92;45.14;101039.59;4488851;31;34193;-68
2022/03/01 01:09:03;;;;;;;;;;;;;;;4.33;42.79;101034.91;4483429;31;33868;-65
2022/03/01 01:11:31;;;;;;;;;;;;;;;4.04;43.21;101031.28;4487478;31;35666;-65
2022/03/01 01:13:59;;;;;;;;;;;;;;;3.80;44.18;101032.84;4487191;31;34082;-65
2022/03/01 01:16:27;;;;;;;;;;;;;;;3.94;44.10;101035.97;4485016;31;35065;-66
2022/03/01 01:18:55;;;;;;;;;;;;;;;4.22;42.48;101043.19;4488186;31;32433;-64
2022/03/01 01:22:39;;;;;;;;;;;;;;;4.41;42.96;101035.59;4494103;31;33783;-64
2022/03/01 01:24:14;;;;;;;;;;;;;;;4.35;44.23;101036.63;4489959;31;34321;-63
2022/03/01 01:26:43;;;;;;;;;;;;;;;4.04;42.62;101039.25;4490140;31;34564;-64
2022/03/01 01:29:15;;;;;;;;;;;;;;;4.27;42.08;101041.28;4492483;31;34578;-64
2022/03/01 01:31:44;;;;;;;;;;;;;;;3.71;44.51;101044.53;4489624;31;32889;-65
2022/03/01 01:34:13;;;;;;;;;;;;;;;3.96;43.61;101034.16;4487899;31;34066;-66
2022/03/01 01:36:42;;;;;;;;;;;;;;;4.00;45.21;101037.59;4485928;31;34059;-65
2022/03/01 01:39:10;;;;;;;;;;;;;;;4.06;43.84;101036.56;4487202;31;34259;-65
2022/03/01 01:41:39;;;;;;;;;;;;;;;3.79;44.16;101044.34;4489096;31;34209;-65
2022/03/01 01:44:08;;;;;;;;;;;;;;;3.77;44.45;101046.16;4490227;31;34426;-68
2022/03/01 01:46:37;;;;;;;;;;;;;;;4.08;42.49;101045.34;4482320;31;35260;-67
2022/03/01 01:49:05;;;;;;;;;;;;;;;4.06;43.95;101042.72;4487112;31;32217;-66
2022/03/01 01:51:33;;;;;;;;;;;;;;;3.99;44.84;101037.66;4487189;31;34034;-66
2022/03/01 01:54:06;;;;;;;;;;;;;;;4.13;45.14;101039.00;4486645;31;33013;-66
2022/03/01 01:56:40;;;;;;;;;;;;;;;4.48;43.22;101042.44;4485251;31;32914;-69
2022/03/01 01:59:09;;;;;;;;;;;;;;;4.37;42.42;101040.13;4487175;31;33712;-66
2022/03/01 02:01:40;;;;;;;;;;;;;;;4.41;42.02;101028.50;4491036;31;33960;-66
2022/03/01 02:04:10;;;;;;;;;;;;;;;4.99;40.81;101030.31;4488020;31;34221;-66
2022/03/01 02:06:51;;;;;;;;;;;;;;;5.44;40.27;101027.97;4490879;31;34211;-66
2022/03/01 02:09:21;;;;;;;;;;;;;;;4.96;42.55;101025.09;4492279;31;31824;-66
2022/03/01 02:11:53;;;;;;;;;;;;;;;5.21;39.64;101019.91;4484000;31;34154;-66
2022/03/01 02:14:22;;;;;;;;;;;;;;;5.24;40.19;101017.16;4482118;31;34274;-66
2022/03/01 02:16:52;;;;;;;;;;;;;;;5.04;43.06;101023.06;4484425;31;35416;-66
2022/03/01 02:19:22;;;;;;;;;;;;;;;5.40;40.50;101022.81;4486538;31;32451;-66
2022/03/01 02:21:56;;;;;;;;;;;;;;;5.59;39.83;101011.53;4487986;31;34184;-66
2022/03/01 02:24:26;;;;;;;;;;;;;;;5.65;40.48;101015.75;4491339;31;33959;-66
2022/03/01 02:26:58;;;;;;;;;;;;;;;5.48;39.34;101015.44;4480096;32;33994;-66
2022/03/01 02:29:27;;;;;;;;;;;;;;;5.21;40.71;101011.94;4479871;32;32695;-65
2022/03/01 02:31:59;;;;;;;;;;;;;;;5.46;40.38;101010.22;4486632;31;34826;-67
2022/03/01 02:34:28;;;;;;;;;;;;;;;5.32;39.60;101017.75;4489721;31;32989;-66
2022/03/01 02:36:58;;;;;;;;;;;;;;;5.16;41.65;101008.53;4487869;31;34300;-67
2022/03/01 02:39:28;;;;;;;;;;;;;;;5.14;40.17;101004.16;4483788;31;32325;-67
2022/03/01 02:41:59;;;;;;;;;;;;;;;5.35;39.18;101013.19;4486165;31;33577;-66
2022/03/01 02:44:32;;;;;;;;;;;;;;;5.30;40.40;101003.66;4484230;31;34247;-66
2022/03/01 02:47:03;;;;;;;;;;;;;;;5.46;39.49;101012.00;4487015;31;33665;-66
2022/03/01 02:49:32;;;;;;;;;;;;;;;5.36;38.94;101017.63;4487867;31;32402;-66
2022/03/01 02:52:03;;;;;;;;;;;;;;;4.74;41.70;101008.97;4487955;31;34331;-66
2022/03/01 02:54:34;;;;;;;;;;;;;;;4.82;40.01;101009.63;4483157;31;33113;-66
2022/03/01 02:57:03;;;;;;;;;;;;;;;4.85;38.93;101013.03;4491208;31;34291;-66
2022/03/01 02:59:32;;;;;;;;;;;;;;;4.59;40.91;101010.28;4489148;31;32577;-68
2022/03/01 03:02:04;;;;;;;;;;;;;;;4.22;42.68;101010.53;4491449;31;34893;-66
2022/03/01 03:04:34;;;;;;;;;;;;;;;4.37;40.98;101008.31;4488330;31;34034;-68
2022/03/01 03:07:04;;;;;;;;;;;;;;;4.87;40.08;101005.03;4486040;31;33182;-68
2022/03/01 03:09:34;;;;;;;;;;;;;;;4.70;39.91;101008.22;4487255;31;32959;-67
2022/03/01 03:12:05;;;;;;;;;;;;;;;5.32;38.65;101007.13;4489859;31;34241;-66
2022/03/01 03:14:36;;;;;;;;;;;;;;;4.73;40.55;101018.72;4486923;31;34385;-69
2022/03/01 03:17:06;;;;;;;;;;;;;;;5.18;39.12;100998.75;4486240;31;33989;-68
2022/03/01 03:19:36;;;;;;;;;;;;;;;5.43;37.63;100999.69;4487529;31;33724;-66
2022/03/01 03:22:06;;;;;;;;;;;;;;;5.17;39.10;101005.84;4492571;31;33604;-69
2022/03/01 03:24:37;;;;;;;;;;;;;;;5.73;38.61;101005.72;4487447;31;34378;-66
2022/03/01 03:27:06;;;;;;;;;;;;;;;5.88;36.83;101012.31;4483873;31;33240;-66
2022/03/01 03:29:34;;;;;;;;;;;;;;;5.56;39.94;101008.09;4485546;31;32689;-69
2022/03/01 03:32:03;;;;;;;;;;;;;;;5.35;38.08;101002.56;4492142;31;34925;-66
2022/03/01 03:34:32;;;;;;;;;;;;;;;5.43;37.41;101006.78;4486030;31;32955;-65
2022/03/01 03:37:00;;;;;;;;;;;;;;;5.24;38.99;101012.69;4484908;31;34498;-65
2022/03/01 03:39:29;;;;;;;;;;;;;;;5.24;38.87;101014.50;4484762;31;32416;-65
2022/03/01 03:41:58;;;;;;;;;;;;;;;5.68;37.37;101013.00;4486334;31;34613;-64
2022/03/01 03:44:26;;;;;;;;;;;;;;;5.70;37.85;101019.13;4484972;31;34249;-65
2022/03/01 03:46:54;;;;;;;;;;;;;;;5.80;37.78;101022.31;4488533;31;34230;-65
2022/03/01 03:49:24;;;;;;;;;;;;;;;6.45;35.78;101012.91;4487628;31;33548;-65
2022/03/01 03:51:55;;;;;;;;;;;;;;;6.35;35.67;101009.72;4486754;31;33950;-69
2022/03/01 03:54:24;;;;;;;;;;;;;;;6.01;37.81;101015.44;4486272;31;34014;-65
2022/03/01 03:56:52;;;;;;;;;;;;;;;6.33;35.21;101016.06;4489159;31;34614;-65
2022/03/01 03:59:21;;;;;;;;;;;;;;;6.94;34.22;101019.91;4487479;31;33487;-65
2022/03/01 04:01:50;;;;;;;;;;;;;;;7.34;33.72;101015.63;4485359;31;34381;-65
2022/03/01 04:04:19;;;;;;;;;;;;;;;6.74;36.01;101017.13;4487343;31;34364;-65
2022/03/01 04:06:47;;;;;;;;;;;;;;;7.30;33.49;101013.16;4483565;31;35017;-64
2022/03/01 04:09:16;;;;;;;;;;;;;;;7.32;33.20;101011.28;4486798;31;33369;-65
2022/03/01 04:11:44;;;;;;;;;;;;;;;7.86;32.64;101021.41;4485390;31;34591;-65
2022/03/01 04:14:12;;;;;;;;;;;;;;;7.12;34.60;101023.59;4486933;31;35479;-65
2022/03/01 04:16:42;;;;;;;;;;;;;;;6.73;34.71;101016.25;4481447;31;35081;-65
2022/03/01 04:19:12;;;;;;;;;;;;;;;7.55;32.97;101021.00;4491666;31;33639;-68
2022/03/01 04:21:43;;;;;;;;;;;;;;;7.73;32.43;101016.66;4482864;31;33884;-65
2022/03/01 04:24:12;;;;;;;;;;;;;;;8.02;31.99;101013.59;4470285;31;34119;-64
2022/03/01 04:26:41;;;;;;;;;;;;;;;7.79;32.42;101019.06;4479510;32;34462;-65
2022/03/01 04:29:10;;;;;;;;;;;;;;;7.12;33.79;101012.09;4472531;32;33388;-65
2022/03/01 04:31:39;;;;;;;;;;;;;;;7.87;32.22;101020.50;4488011;31;32987;-69
2022/03/01 04:34:08;;;;;;;;;;;;;;;6.99;33.98;101009.06;4486492;31;34376;-67
2022/03/01 04:36:38;;;;;;;;;;;;;;;7.73;32.51;101006.87;4484386;31;34604;-70
2022/03/01 04:39:07;;;;;;;;;;;;;;;7.77;32.45;101010.28;4492352;31;32454;-66
2022/03/01 04:41:37;;;;;;;;;;;;;;;7.39;32.98;101010.13;4486479;31;34025;-67
2022/03/01 04:44:05;;;;;;;;;;;;;;;7.82;32.43;101010.94;4486128;31;33161;-67
2022/03/01 04:46:34;;;;;;;;;;;;;;;7.86;32.36;101021.41;4489630;31;34367;-67
2022/03/01 04:49:03;;;;;;;;;;;;;;;7.78;32.20;101020.03;4489213;31;34402;-66
2022/03/01 04:51:32;;;;;;;;;;;;;;;7.24;33.63;101016.94;4487918;31;34995;-66
2022/03/01 04:54:01;;;;;;;;;;;;;;;7.68;33.00;101019.56;4480305;32;34931;-66
2022/03/01 04:56:30;;;;;;;;;;;;;;;7.82;32.73;101021.62;4481637;31;33325;-68
2022/03/01 04:59:01;;;;;;;;;;;;;;;7.99;32.23;101016.41;4492437;31;34467;-67
2022/03/01 05:01:34;;;;;;;;;;;;;;;8.09;32.19;101016.87;4491347;31;32908;-66
2022/03/01 05:04:16;;;;;;;;;;;;;;;7.50;32.93;101017.66;4486586;31;34191;-67
2022/03/01 05:06:46;;;;;;;;;;;;;;;7.86;33.09;101013.41;4489015;31;35028;-68
2022/03/01 05:09:14;;;;;;;;;;;;;;;8.13;31.66;101008.69;4485933;31;31634;-67
2022/03/01 05:11:44;;;;;;;;;;;;;;;8.12;32.57;101011.41;4484707;31;33891;-67
2022/03/01 05:14:13;;;;;;;;;;;;;;;8.29;31.45;101000.84;4489625;31;34005;-66
2022/03/01 05:16:43;;;;;;;;;;;;;;;8.13;32.29;101010.47;4485540;31;33367;-66
2022/03/01 05:19:12;;;;;;;;;;;;;;;8.51;31.19;101007.94;4491421;31;33747;-66
2022/03/01 05:21:41;;;;;;;;;;;;;;;8.38;31.68;101011.16;4485682;31;34237;-66
2022/03/01 05:24:10;;;;;;;;;;;;;;;7.93;32.78;101014.03;4491072;31;33008;-66
2022/03/01 05:26:41;;;;;;;;;;;;;;;8.42;31.57;101006.53;4491163;31;33269;-67
2022/03/01 05:29:10;;;;;;;;;;;;;;;7.79;32.44;101006.63;4467782;32;33617;-66
2022/03/01 05:31:38;;;;;;;;;;;;;;;7.90;32.71;101009.69;4484669;31;33960;-66
2022/03/01 05:34:07;;;;;;;;;;;;;;;8.37;31.45;101006.69;4490017;31;35433;-66
2022/03/01 05:36:36;;;;;;;;;;;;;;;8.38;31.05;101005.81;4489183;31;34149;-67
2022/03/01 05:39:05;;;;;;;;;;;;;;;8.21;31.86;101008.31;4486354;31;32514;-66
2022/03/01 05:41:35;;;;;;;;;;;;;;;8.17;32.02;101015.59;4484424;31;33727;-66
2022/03/01 05:44:04;;;;;;;;;;;;;;;8.43;30.97;101016.25;4486795;31;33060;-68
2022/03/01 05:46:33;;;;;;;;;;;;;;;8.49;31.64;101009.78;4480862;32;32743;-65
2022/03/01 05:49:07;;;;;;;;;;;;;;;8.58;30.84;101010.22;4490391;31;33427;-66
2022/03/01 05:51:46;;;;;;;;;;;;;;;8.54;31.13;101007.75;4483258;31;33912;-69
2022/03/01 05:54:15;;;;;;;;;;;;;;;8.65;30.60;101010.81;4490689;31;34447;-66
2022/03/01 05:56:45;;;;;;;;;;;;;;;8.62;30.53;101016.28;4480889;32;33400;-69
2022/03/01 05:59:13;;;;;;;;;;;;;;;8.28;31.51;101020.47;4482157;32;32665;-69
2022/03/01 06:01:42;;;;;;;;;;;;;;;8.56;31.28;101022.75;4484063;31;32795;-66
2022/03/01 06:04:12;;;;;;;;;;;;;;;8.60;30.91;101019.03;4480501;32;35397;-65
2022/03/01 06:06:41;;;;;;;;;;;;;;;8.77;30.31;101020.91;4484198;31;33805;-66
2022/03/01 06:09:11;;;;;;;;;;;;;;;8.62;30.48;101017.16;4484706;31;33706;-67
2022/03/01 06:11:39;;;;;;;;;;;;;;;8.42;31.80;101019.87;4490325;31;32698;-66
2022/03/01 06:14:08;;;;;;;;;;;;;;;7.94;32.38;101026.41;4490750;31;33126;-67
2022/03/01 06:16:37;;;;;;;;;;;;;;;7.96;31.61;101018.34;4483505;31;34611;-66
2022/03/01 06:19:07;;;;;;;;;;;;;;;7.33;32.35;101021.88;4490287;31;32909;-65
2022/03/01 06:21:37;;;;;;;;;;;;;;;8.21;31.57;101035.00;4475103;31;32850;-65
2022/03/01 06:24:05;;;;;;;;;;;;;;;7.83;31.28;101026.00;4471534;31;33198;-65
2022/03/01 06:26:35;;;;;;;;;;;;;;;6.97;32.61;101019.78;4490935;31;33335;-65
2022/03/01 06:29:04;;;;;;;;;;;;;;;7.59;32.62;101030.59;4488995;31;32364;-64
2022/03/01 06:31:33;;;;;;;;;;;;;;;8.39;31.38;101023.53;4490531;31;33612;-66
2022/03/01 06:34:03;;;;;;;;;;;;;;;8.74;31.20;101020.19;4486578;31;33038;-66
2022/03/01 06:36:35;;;;;;;;;;;;;;;9.06;30.01;101016.00;4492325;31;34995;-66
2022/03/01 06:39:06;;;;;;;;;;;;;;;9.07;31.15;101015.91;4483781;31;31375;-66
2022/03/01 06:41:40;;;;;;;;;;;;;;;9.43;29.62;101015.03;4486662;31;33705;-66
2022/03/01 06:44:20;;;;;;;;;;;;;;;9.54;29.57;101020.72;4489783;31;33251;-66
2022/03/01 06:47:01;;;;;;;;;;;;;;;10.08;28.97;101019.75;4491642;31;34528;-66
2022/03/01 06:49:43;;;;;;;;;;;;;;;10.11;28.45;101019.59;4490676;31;33807;-65
2022/03/01 06:52:24;;;;;;;;;;;;;;;11.80;26.62;101019.09;4495114;31;33986;-67
2022/03/01 06:55:05;;;;;;;;;;;;;;;13.19;25.74;101017.56;4491285;31;33071;-66
2022/03/01 06:57:50;;;;;;;;;;;;;;;14.09;23.89;101010.66;4495239;31;33226;-66
2022/03/01 07:00:30;;;;;;;;;;;;;;;14.81;22.19;101010.97;4488665;31;34575;-65
2022/03/01 07:03:05;;;;;;;;;;;;;;;13.55;23.94;101008.06;4489303;31;32043;-65
2022/03/01 07:05:45;;;;;;;;;;;;;;;12.73;24.67;101010.66;4487136;31;33346;-68
2022/03/01 07:08:20;;;;;;;;;;;;;;;12.85;24.43;100998.28;4488797;31;33787;-65
2022/03/01 07:10:55;;;;;;;;;;;;;;;12.42;25.41;101009.03;4486471;31;32436;-65
2022/03/01 07:13:29;;;;;;;;;;;;;;;11.71;27.95;101009.75;4493111;31;33758;-64
2022/03/01 07:15:58;;;;;;;;;;;;;;;11.74;26.30;100998.84;4482133;32;32417;-64
2022/03/01 07:18:28;;;;;;;;;;;;;;;11.58;26.87;100998.91;4488942;31;33557;-64
2022/03/01 07:20:58;;;;;;;;;;;;;;;11.40;26.19;101000.00;4482641;32;34832;-64
2022/03/01 07:23:31;;;;;;;;;;;;;;;11.39;26.67;100990.22;4482530;32;34257;-67
2022/03/01 07:26:09;;;;;;;;;;;;;;;10.96;27.79;100990.88;4491570;31;33023;-64
2022/03/01 07:28:41;;;;;;;;;;;;;;;11.07;26.30;100995.59;4483088;32;33023;-68
2022/03/01 07:31:16;;;;;;;;;;;;;;;10.93;27.36;100984.81;4490293;31;33362;-65
2022/03/01 07:33:57;;;;;;;;;;;;;;;10.29;27.61;100981.22;4488896;31;35304;-66
2022/03/01 07:36:38;;;;;;;;;;;;;;;9.96;28.37;100986.50;4488649;31;34703;-64
2022/03/01 07:39:23;;;;;;;;;;;;;;;10.02;28.22;100991.53;4487783;31;34318;-64
2022/03/01 07:42:04;;;;;;;;;;;;;;;9.62;29.23;100982.03;4489017;31;32413;-63
2022/03/01 07:44:45;;;;;;;;;;;;;;;10.17;28.32;100990.72;4486399;31;34021;-63
2022/03/01 07:47:19;;;;;;;;;;;;;;;9.16;29.73;100989.69;4485016;31;34593;-63
2022/03/01 07:50:01;;;;;;;;;;;;;;;8.59;29.12;100987.94;4494165;31;34724;-63
2022/03/01 07:52:40;;;;;;;;;;;;;;;8.89;30.63;100992.75;4488733;31;32496;-65
2022/03/01 07:55:14;;;;;;;;;;;;;;;9.57;28.26;100985.81;4490453;31;33563;-63
2022/03/01 07:57:49;;;;;;;;;;;;;;;9.41;30.35;100984.00;4486232;31;33158;-65
2022/03/01 08:00:30;;;;;;;;;;;;;;;10.44;28.55;100985.72;4489085;31;34239;-63
2022/03/01 08:03:08;;;;;;;;;;;;;;;10.94;29.92;100987.41;4491973;31;32727;-63
2022/03/01 08:05:45;;;;;;;;;;;;;;;10.55;26.71;100989.63;4486556;31;34420;-64
2022/03/01 08:08:28;;;;;;;;;;;;;;;11.15;27.19;100984.47;4488312;31;34056;-67
2022/03/01 08:11:10;;;;;;;;;;;;;;;11.17;25.70;100986.13;4492785;31;33231;-64
2022/03/01 08:13:53;;;;;;;;;;;;;;;10.42;26.32;100982.25;4488001;31;32962;-63
2022/03/01 08:16:29;;;;;;;;;;;;;;;9.68;27.36;100985.25;4486842;31;32924;-66
2022/03/01 08:19:11;;;;;;;;;;;;;;;9.40;27.43;100982.25;4494086;31;33721;-63
2022/03/01 08:21:48;;;;;;;;;;;;;;;9.49;29.73;100988.00;4492539;31;34762;-63
2022/03/01 08:24:27;;;;;;;;;;;;;;;10.18;28.34;100986.25;4487653;31;32528;-66
2022/03/01 08:27:06;;;;;;;;;;;;;;;9.69;27.31;100986.97;4493786;31;32751;-63
2022/03/01 08:29:49;;;;;;;;;;;;;;;9.79;27.47;100988.25;4490769;31;33232;-64
2022/03/01 08:32:28;;;;;;;;;;;;;;;10.19;25.98;100979.94;4490554;31;32409;-67
2022/03/01 08:35:11;;;;;;;;;;;;;;;9.96;27.96;100982.03;4487515;31;34272;-66
2022/03/01 08:37:51;;;;;;;;;;;;;;;10.46;26.58;100991.88;4484162;32;33438;-63
2022/03/01 08:40:37;;;;;;;;;;;;;;;10.81;26.55;100983.69;4491153;31;33085;-63
2022/03/01 08:43:16;;;;;;;;;;;;;;;9.95;28.25;100985.66;4491362;31;33322;-64
2022/03/01 08:46:02;;;;;;;;;;;;;;;10.68;26.31;100974.62;4493248;31;32368;-63
2022/03/01 08:48:37;;;;;;;;;;;;;;;10.45;27.38;100970.53;4488988;31;35207;-66
2022/03/01 08:51:12;;;;;;;;;;;;;;;11.68;22.93;100966.16;4496048;31;33042;-64
2022/03/01 08:53:45;;;;;;;;;;;;;;;11.91;22.85;100965.69;4490425;31;34114;-64
2022/03/01 08:56:21;;;;;;;;;;;;;;;12.98;21.36;100960.72;4493390;31;33377;-64
2022/03/01 08:58:55;;;;;;;;;;;;;;;13.55;20.59;100968.59;4494461;31;33160;-63
2022/03/01 09:01:25;;;;;;;;;;;;;;;13.33;21.98;100968.31;4488122;31;33037;-64
2022/03/01 09:03:56;;;;;;;;;;;;;;;12.57;22.92;100961.56;4491953;31;33549;-67
2022/03/01 09:06:27;;;;;;;;;;;;;;;12.01;23.00;100963.31;4488172;31;32296;-66
2022/03/01 09:08:58;;;;;;;;;;;;;;;12.25;22.86;100958.22;4489682;31;33113;-64
2022/03/01 09:11:29;;;;;;;;;;;;;;;12.03;22.90;100954.19;4493728;31;33058;-63
2022/03/01 09:14:05;;;;;;;;;;;;;;;11.42;23.55;100955.19;4484137;31;34656;-63
2022/03/01 09:16:41;;;;;;;;;;;;;;;11.57;24.28;100958.78;4490375;31;34202;-64
2022/03/01 09:19:14;;;;;;;;;;;;;;;12.73;24.31;100953.41;4488927;31;34825;-63
2022/03/01 09:21:45;;;;;;;;;;;;;;;12.11;23.88;100959.09;4481635;31;33068;-64
2022/03/01 09:24:18;;;;;;;;;;;;;;;11.20;24.19;100952.88;4487652;31;33205;-67
2022/03/01 09:26:48;;;;;;;;;;;;;;;11.57;23.94;100953.41;4492192;31;33812;-64
2022/03/01 09:29:25;;;;;;;;;;;;;;;11.74;22.50;100950.56;4496907;31;33002;-64
2022/03/01 09:31:58;;;;;;;;;;;;;;;11.58;23.08;100952.44;4493560;31;32973;-63
2022/03/01 09:34:33;;;;;;;;;;;;;;;11.89;23.81;100949.69;4489222;31;33272;-63
2022/03/01 09:37:04;;;;;;;;;;;;;;;12.53;22.53;100936.75;4483787;32;32863;-64
2022/03/01 09:39:35;;;;;;;;;;;;;;;12.70;23.37;100934.78;4484649;32;34311;-63
2022/03/01 09:42:10;;;;;;;;;;;;;;;13.06;21.62;100920.75;4484937;31;34369;-64
2022/03/01 09:44:43;;;;;;;;;;;;;;;13.20;20.81;100917.16;4490685;31;35028;-67
2022/03/01 09:47:15;;;;;;;;;;;;;;;12.73;21.35;100926.53;4493669;31;33691;-64
2022/03/01 09:49:45;;;;;;;;;;;;;;;13.48;21.84;100918.84;4491037;31;33320;-63
2022/03/01 09:52:18;;;;;;;;;;;;;;;13.75;22.11;100908.91;4490624;31;33121;-64
2022/03/01 09:54:52;;;;;;;;;;;;;;;14.01;22.53;100914.28;4492509;31;33062;-65
2022/03/01 09:57:20;;;;;;;;;;;;;;;14.37;21.12;100897.31;4492155;31;34546;-64
2022/03/01 09:59:53;;;;;;;;;;;;;;;14.79;20.39;100903.25;4490781;31;34178;-64
2022/03/01 10:02:34;;;;;;;;;;;;;;;15.22;19.48;100900.06;4486789;31;35034;-64
2022/03/01 10:05:09;;;;;;;;;;;;;;;15.75;20.15;100894.22;4486754;31;34417;-68
2022/03/01 10:07:44;;;;;;;;;;;;;;;15.60;19.96;100886.34;4489281;31;32153;-63
2022/03/01 10:10:16;;;;;;;;;;;;;;;15.66;21.04;100881.41;4483798;32;33357;-64
2022/03/01 10:12:58;;;;;;;;;;;;;;;15.79;21.24;100884.91;4484293;32;35551;-64
2022/03/01 10:15:32;;;;;;;;;;;;;;;16.40;17.77;100876.44;4489363;31;34281;-64
2022/03/01 10:18:12;;;;;;;;;;;;;;;16.24;18.57;100877.72;4488123;31;33452;-63
2022/03/01 10:20:47;;;;;;;;;;;;;;;15.71;17.26;100880.13;4494068;31;34263;-64
2022/03/01 10:23:23;;;;;;;;;;;;;;;13.97;19.73;100872.41;4479568;31;33165;-67
2022/03/01 10:25:54;;;;;;;;;;;;;;;14.55;21.59;100872.75;4486768;31;34167;-66
2022/03/01 10:28:36;;;;;;;;;;;;;;;15.00;19.89;100859.53;4488216;31;34299;-67
2022/03/01 10:31:13;;;;;;;;;;;;;;;15.06;20.38;100862.62;4485779;31;34748;-64
2022/03/01 10:33:54;;;;;;;;;;;;;;;15.13;18.32;100850.37;4488188;31;34180;-64
2022/03/01 10:36:32;;;;;;;;;;;;;;;14.61;18.02;100851.63;4486464;31;34084;-66
2022/03/01 10:39:09;;;;;;;;;;;;;;;13.88;19.53;100856.91;4490870;31;32320;-64
2022/03/01 10:41:48;;;;;;;;;;;;;;;14.24;20.49;100852.56;4492562;31;33891;-64
2022/03/01 10:44:25;;;;;;;;;;;;;;;14.93;18.61;100837.56;4486598;31;35002;-65
2022/03/01 10:47:08;;;;;;;;;;;;;;;14.59;18.63;100841.91;4481865;32;35060;-65
2022/03/01 10:49:45;;;;;;;;;;;;;;;13.43;19.65;100841.19;4484281;31;34301;-64
2022/03/01 10:52:23;;;;;;;;;;;;;;;13.31;19.48;100833.97;4482024;32;34603;-66
2022/03/01 10:55:04;;;;;;;;;;;;;;;14.11;19.84;100831.88;4488002;31;32817;-64
2022/03/01 10:57:57;;;;;;;;;;;;;;;14.28;19.62;100819.87;4490562;31;33394;-63
2022/03/01 11:00:33;;;;;;;;;;;;;;;15.38;18.76;100808.03;4489798;31;32177;-64
2022/03/01 11:03:09;;;;;;;;;;;;;;;15.19;17.24;100803.22;4492644;31;32442;-64
2022/03/01 11:05:49;;;;;;;;;;;;;;;14.65;17.68;100804.59;4487196;31;34364;-65
2022/03/01 11:08:38;;;;;;;;;;;;;;;14.14;19.42;100798.50;4478118;31;33078;-66
2022/03/01 11:11:18;;;;;;;;;;;;;;;14.83;20.76;100793.37;4490631;31;34415;-68
2022/03/01 11:13:48;;;;;;;;;;;;;;;15.03;18.64;100792.75;4475316;31;34326;-65
2022/03/01 11:16:23;;;;;;;;;;;;;;;16.03;17.29;100785.75;4490709;31;34139;-64
2022/03/01 11:19:10;;;;;;;;;;;;;;;15.93;17.37;100786.63;4473286;31;34358;-65
2022/03/01 11:21:40;;;;;;;;;;;;;;;16.07;18.31;100776.41;4483259;32;32500;-66
2022/03/01 11:24:18;;;;;;;;;;;;;;;15.32;18.68;100779.69;4469147;32;32698;-65
2022/03/01 11:27:13;;;;;;;;;;;;;;;15.84;19.13;100769.34;4487358;31;33257;-64
2022/03/01 11:30:09;;;;;;;;;;;;;;;15.22;17.49;100769.75;4489337;31;33404;-64
2022/03/01 11:32:49;;;;;;;;;;;;;;;16.07;17.00;100757.50;4491278;31;33642;-67
2022/03/01 11:35:30;;;;;;;;;;;;;;;15.80;18.61;100755.22;4493602;31;32778;-64
2022/03/01 11:38:19;;;;;;;;;;;;;;;15.91;17.87;100748.94;4489141;31;33131;-64
2022/03/01 11:41:20;;;;;;;;;;;;;;;16.27;17.53;100741.50;4493812;31;33181;-64
2022/03/01 11:44:01;;;;;;;;;;;;;;;16.64;17.37;100731.19;4488849;31;34156;-69
2022/03/01 11:46:48;;;;;;;;;;;;;;;15.53;14.83;100731.25;4485017;31;33004;-64
2022/03/01 11:49:27;;;;;;;;;;;;;;;16.04;14.67;100730.75;4484606;31;33938;-68
2022/03/01 11:52:04;;;;;;;;;;;;;;;15.06;16.30;100725.09;4489495;31;35388;-68
2022/03/01 11:54:43;;;;;;;;;;;;;;;15.81;15.88;100710.19;4492285;31;32810;-64
2022/03/01 11:57:25;;;;;;;;;;;;;;;16.41;18.04;100708.81;4489509;31;32779;-64
2022/03/01 11:59:58;;;;;;;;;;;;;;;16.09;18.72;100713.34;4486100;31;33518;-67
2022/03/01 12:02:39;;;;;;;;;;;;;;;15.65;18.06;100707.84;4490434;31;33184;-67
2022/03/01 12:05:27;;;;;;;;;;;;;;;16.63;14.86;100702.47;4491384;31;33488;-64
2022/03/01 12:08:04;;;;;;;;;;;;;;;15.97;15.63;100699.00;4486627;31;33915;-64
2022/03/01 12:10:57;;;;;;;;;;;;;;;14.79;15.62;100690.34;4487993;31;34007;-64
2022/03/01 12:13:46;;;;;;;;;;;;;;;14.80;16.64;100692.09;4495091;31;34478;-65
2022/03/01 12:16:25;;;;;;;;;;;;;;;15.12;16.81;100692.28;4494387;31;33895;-63
2022/03/01 12:19:03;;;;;;;;;;;;;;;13.62;16.67;100692.81;4493791;31;34406;-68
2022/03/01 12:21:32;;;;;;;;;;;;;;;14.15;20.94;100692.53;4492118;31;34641;-65
2022/03/01 12:23:59;;;;;;;;;;;;;;;15.30;17.67;100687.25;4487414;31;34194;-65
2022/03/01 12:26:28;;;;;;;;;;;;;;;15.74;15.70;100685.53;4494632;31;32317;-67
2022/03/01 12:28:57;;;;;;;;;;;;;;;15.44;16.81;100677.19;4496799;31;33993;-67
2022/03/01 12:31:26;;;;;;;;;;;;;;;15.67;16.08;100675.38;4491898;31;34492;-67
2022/03/01 12:33:59;;;;;;;;;;;;;;;16.05;15.79;100672.22;4497949;31;35314;-65
2022/03/01 12:36:30;;;;;;;;;;;;;;;16.38;15.22;100665.84;4488387;31;33743;-66
2022/03/01 12:38:59;;;;;;;;;;;;;;;16.13;14.28;100664.34;4490288;31;34014;-65
2022/03/01 12:41:27;;;;;;;;;;;;;;;14.40;15.33;100670.00;4492459;31;34099;-65
2022/03/01 12:43:56;;;;;;;;;;;;;;;14.47;16.65;100665.84;4489128;31;34323;-65
2022/03/01 12:46:24;;;;;;;;;;;;;;;14.48;15.28;100659.53;4489913;31;33699;-65
2022/03/01 12:48:52;;;;;;;;;;;;;;;14.01;14.81;100661.25;4488567;31;33578;-65
2022/03/01 12:51:20;;;;;;;;;;;;;;;13.79;14.89;100653.91;4491421;31;33510;-67
2022/03/01 12:53:55;;;;;;;;;;;;;;;15.00;16.23;100654.63;4492061;31;34435;-65
2022/03/01 12:56:24;;;;;;;;;;;;;;;15.93;15.56;100644.41;4486980;32;33109;-65
2022/03/01 12:58:53;;;;;;;;;;;;;;;16.58;14.69;100639.81;4484896;31;34657;-66
2022/03/01 13:01:21;;;;;;;;;;;;;;;16.88;13.67;100641.75;4488164;31;35100;-65
2022/03/01 13:03:49;;;;;;;;;;;;;;;15.56;14.30;100641.97;4480095;31;35159;-65
2022/03/01 13:06:18;;;;;;;;;;;;;;;16.36;14.06;100639.94;4486892;31;33597;-65
2022/03/01 13:08:48;;;;;;;;;;;;;;;16.81;13.40;100627.06;4492235;31;33956;-65
2022/03/01 13:11:15;;;;;;;;;;;;;;;15.67;15.21;100634.91;4477018;31;33282;-67
2022/03/01 13:13:46;;;;;;;;;;;;;;;15.48;15.79;100632.81;4488267;31;34667;-66